createdAt,value
2023-02-25T00:00:31.703Z,98935.00
2023-02-25T00:03:04.580Z,98944.09
2023-02-25T00:05:34.325Z,98964.69
2023-02-25T00:08:03.593Z,98987.31
2023-02-25T00:10:38.923Z,98985.69
2023-02-25T00:13:17.821Z,98977.84
2023-02-25T00:15:50.866Z,98971.31
2023-02-25T00:18:21.753Z,98967.34
2023-02-25T00:20:51.041Z,98963.72
2023-02-25T00:23:20.826Z,98932.03
2023-02-25T00:26:00.239Z,98961.44
2023-02-25T00:28:29.866Z,98868.44
2023-02-25T00:30:59.329Z,98950.44
2023-02-25T00:33:28.875Z,98908.94
2023-02-25T00:35:58.052Z,98926.63
2023-02-25T00:38:28.158Z,98919.47
2023-02-25T00:40:58.791Z,98935.75
2023-02-25T00:43:30.894Z,98942.34
2023-02-25T00:46:00.680Z,98913.13
2023-02-25T00:48:29.824Z,98939.19
2023-02-25T00:50:59.040Z,98933.69
2023-02-25T00:53:29.224Z,98933.09
2023-02-25T00:56:03.612Z,98897.88
2023-02-25T00:58:33.629Z,98921.59
2023-02-25T01:01:02.948Z,98930.78
2023-02-25T01:03:33.602Z,98881.09
2023-02-25T01:06:03.206Z,98935.63
2023-02-25T01:08:32.889Z,98916.16
2023-02-25T01:11:12.334Z,98907.28
2023-02-25T01:13:41.658Z,98918.66
2023-02-25T01:16:15.958Z,98909.53
2023-02-25T01:18:47.494Z,98891.28
2023-02-25T01:21:18.741Z,98907.34
2023-02-25T01:23:49.145Z,98903.47
2023-02-25T01:26:19.797Z,98889.91
2023-02-25T01:28:49.160Z,98894.25
2023-02-25T01:31:19.417Z,98876.03
2023-02-25T01:33:48.874Z,98885.59
2023-02-25T01:36:17.932Z,98889.41
2023-02-25T01:38:47.180Z,98878.97
2023-02-25T01:41:16.418Z,98882.41
2023-02-25T01:44:06.952Z,98879.38
2023-02-25T01:46:36.560Z,98878.31
2023-02-25T01:49:11.873Z,98837.38
2023-02-25T01:51:42.188Z,98867.13
2023-02-25T01:54:12.766Z,98858.25
2023-02-25T01:56:45.941Z,98849.25
2023-02-25T01:59:17.997Z,98842.66
2023-02-25T02:01:47.233Z,98847.94
2023-02-25T02:04:19.789Z,98850.81
2023-02-25T02:06:51.091Z,98838.81
2023-02-25T02:09:22.677Z,98846.38
2023-02-25T02:11:53.397Z,98786.16
2023-02-25T02:14:28.785Z,98850.56
2023-02-25T02:17:10.243Z,98850.91
2023-02-25T02:20:13.326Z,98844.69
2023-02-25T02:22:57.256Z,98805.91
2023-02-25T02:26:03.259Z,98836.91
2023-02-25T02:29:10.650Z,98843.63
2023-02-25T02:32:06.547Z,98840.97
2023-02-25T02:34:47.178Z,98829.81
2023-02-25T02:37:30.732Z,98845.53
2023-02-25T02:40:16.146Z,98834.34
2023-02-25T02:42:54.421Z,98822.59
2023-02-25T02:45:30.233Z,98815.03
2023-02-25T02:48:04.731Z,98808.75
2023-02-25T02:50:37.608Z,98793.63
2023-02-25T02:53:11.834Z,98786.94
2023-02-25T02:55:44.855Z,98792.22
2023-02-25T02:58:19.288Z,98793.91
2023-02-25T03:00:55.826Z,98797.31
2023-02-25T03:03:37.412Z,98801.78
2023-02-25T03:06:12.268Z,98754.00
2023-02-25T03:08:46.064Z,98795.56
2023-02-25T03:11:16.433Z,98785.72
2023-02-25T03:13:47.782Z,98783.22
2023-02-25T03:16:24.104Z,98789.06
2023-02-25T03:18:59.161Z,98784.91
2023-02-25T03:21:36.308Z,98743.47
2023-02-25T03:24:10.113Z,98787.91
2023-02-25T03:26:42.806Z,98781.75
2023-02-25T03:29:18.618Z,98787.66
2023-02-25T03:31:56.646Z,98781.66
2023-02-25T03:34:31.843Z,98771.34
2023-02-25T03:37:03.763Z,98766.53
2023-02-25T03:39:40.341Z,98777.72
2023-02-25T03:42:13.296Z,98751.19
2023-02-25T03:44:48.026Z,98777.59
2023-02-25T03:47:19.810Z,98772.44
2023-02-25T03:49:59.357Z,98758.88
2023-02-25T03:52:30.361Z,98754.78
2023-02-25T03:55:04.544Z,98773.03
2023-02-25T03:57:38.172Z,98771.91
2023-02-25T04:00:16.001Z,98766.31
2023-02-25T04:02:47.690Z,98764.03
2023-02-25T04:05:20.802Z,98726.66
2023-02-25T04:07:50.864Z,98721.91
2023-02-25T04:10:20.028Z,98747.84
2023-02-25T04:12:49.713Z,98738.22
2023-02-25T04:15:19.976Z,98739.16
2023-02-25T04:17:49.549Z,98727.44
2023-02-25T04:20:20.884Z,98744.69
2023-02-25T04:22:49.976Z,98731.00
2023-02-25T04:25:19.188Z,98724.44
2023-02-25T04:27:48.414Z,98729.59
2023-02-25T04:30:17.962Z,98728.75
2023-02-25T04:32:47.524Z,98729.72
2023-02-25T04:35:16.996Z,98691.78
2023-02-25T04:37:47.597Z,98704.84
2023-02-25T04:40:19.498Z,98698.13
2023-02-25T04:42:49.151Z,98697.31
2023-02-25T04:45:18.646Z,98710.88
2023-02-25T04:47:48.242Z,98691.78
2023-02-25T04:50:17.578Z,98674.03
2023-02-25T04:52:48.395Z,98709.16
2023-02-25T04:55:18.414Z,98700.66
2023-02-25T04:57:47.666Z,98683.25
2023-02-25T05:00:20.329Z,98667.81
2023-02-25T05:02:50.124Z,98694.78
2023-02-25T05:05:19.853Z,98718.88
2023-02-25T05:07:50.892Z,98681.84
2023-02-25T05:10:20.009Z,98703.09
2023-02-25T05:12:49.372Z,98697.19
2023-02-25T05:15:20.665Z,98706.91
2023-02-25T05:17:50.163Z,98690.59
2023-02-25T05:20:19.903Z,98709.19
2023-02-25T05:22:50.550Z,98705.34
2023-02-25T05:25:19.818Z,98708.47
2023-02-25T05:27:49.586Z,98707.03
2023-02-25T05:30:19.833Z,98700.06
2023-02-25T05:32:49.385Z,98697.13
2023-02-25T05:35:18.932Z,98692.84
2023-02-25T05:37:48.044Z,98696.41
2023-02-25T05:40:19.093Z,98711.38
2023-02-25T05:42:49.705Z,98722.16
2023-02-25T05:45:19.212Z,98684.47
2023-02-25T05:47:49.241Z,98699.59
2023-02-25T05:50:18.719Z,98675.47
2023-02-25T05:52:48.123Z,98716.78
2023-02-25T05:55:19.140Z,98715.84
2023-02-25T05:57:48.174Z,98692.03
2023-02-25T06:00:21.626Z,98672.25
2023-02-25T06:02:51.327Z,98684.34
2023-02-25T06:05:20.460Z,98686.94
2023-02-25T06:07:50.069Z,98655.53
2023-02-25T06:10:22.411Z,98689.91
2023-02-25T06:12:54.513Z,98693.00
2023-02-25T06:15:23.736Z,98693.53
2023-02-25T06:17:53.052Z,98676.25
2023-02-25T06:20:25.374Z,98672.97
2023-02-25T06:22:54.913Z,98653.38
2023-02-25T06:25:32.337Z,98640.03
2023-02-25T06:28:02.547Z,98619.31
2023-02-25T06:30:32.825Z,98613.03
2023-02-25T06:33:02.678Z,98614.56
2023-02-25T06:35:32.349Z,98621.09
2023-02-25T06:38:04.847Z,98630.44
2023-02-25T06:40:35.518Z,98620.31
2023-02-25T06:43:05.146Z,98629.66
2023-02-25T06:45:34.659Z,98633.00
2023-02-25T06:48:04.424Z,98617.19
2023-02-25T06:50:33.970Z,98610.06
2023-02-25T06:53:03.430Z,98590.25
2023-02-25T06:55:32.880Z,98600.59
2023-02-25T06:58:03.565Z,98606.16
2023-02-25T07:00:33.262Z,98616.34
2023-02-25T07:03:03.342Z,98625.25
2023-02-25T07:05:32.628Z,98610.66
2023-02-25T07:08:01.993Z,98616.53
2023-02-25T07:10:31.616Z,98626.53
2023-02-25T07:13:00.950Z,98607.81
2023-02-25T07:15:31.746Z,98611.16
2023-02-25T07:18:01.267Z,98561.56
2023-02-25T07:20:31.361Z,98582.44
2023-02-25T07:23:04.329Z,98483.47
2023-02-25T07:25:34.404Z,98537.31
2023-02-25T07:28:04.084Z,98574.44
2023-02-25T07:30:34.975Z,98552.56
2023-02-25T07:33:06.032Z,98544.06
2023-02-25T07:35:36.149Z,98562.97
2023-02-25T07:38:06.143Z,98561.34
2023-02-25T07:40:36.138Z,98570.81
2023-02-25T07:43:09.112Z,98574.31
2023-02-25T07:45:40.130Z,98571.66
2023-02-25T07:48:10.231Z,98546.28
2023-02-25T07:50:40.569Z,98559.88
2023-02-25T07:53:12.951Z,98554.25
2023-02-25T07:55:46.881Z,98561.25
2023-02-25T07:58:19.312Z,98540.53
2023-02-25T08:00:50.094Z,98529.66
2023-02-25T08:03:19.781Z,98489.31
2023-02-25T08:05:55.191Z,98520.94
2023-02-25T08:08:27.559Z,98540.31
2023-02-25T08:10:58.554Z,98535.44
2023-02-25T08:13:30.952Z,98548.06
2023-02-25T08:16:05.429Z,98539.00
2023-02-25T08:18:34.941Z,98539.13
2023-02-25T08:21:04.728Z,98528.53
2023-02-25T08:23:34.474Z,98544.38
2023-02-25T08:26:07.620Z,98533.75
2023-02-25T08:28:37.729Z,98512.50
2023-02-25T08:31:11.897Z,98501.78
2023-02-25T08:33:49.531Z,98506.00
2023-02-25T08:36:21.818Z,98507.53
2023-02-25T08:38:51.914Z,98512.88
2023-02-25T08:41:23.301Z,98492.47
2023-02-25T08:43:54.766Z,98484.59
2023-02-25T08:46:28.285Z,98465.63
2023-02-25T08:48:57.972Z,98494.72
2023-02-25T08:51:34.491Z,98500.72
2023-02-25T08:54:06.838Z,98473.69
2023-02-25T08:56:36.884Z,98474.19
2023-02-25T08:59:07.370Z,98430.44
2023-02-25T09:01:49.024Z,98454.78
2023-02-25T09:04:21.690Z,98441.66
2023-02-25T09:06:54.733Z,98442.78
2023-02-25T09:09:24.702Z,98455.44
2023-02-25T09:11:54.712Z,98419.78
2023-02-25T09:14:24.146Z,98447.84
2023-02-25T09:16:58.471Z,98451.97
2023-02-25T09:19:27.954Z,98425.53
2023-02-25T09:21:59.651Z,98418.03
2023-02-25T09:24:30.239Z,98433.81
2023-02-25T09:26:59.404Z,98410.09
2023-02-25T09:29:30.612Z,98418.59
2023-02-25T09:32:01.641Z,98391.75
2023-02-25T09:34:33.986Z,98405.09
2023-02-25T09:37:12.654Z,98409.00
2023-02-25T09:39:43.437Z,98405.44
2023-02-25T09:42:19.708Z,98392.75
2023-02-25T09:44:52.323Z,98391.09
2023-02-25T09:47:31.268Z,98360.31
2023-02-25T09:50:04.133Z,98366.06
2023-02-25T09:52:40.851Z,98351.25
2023-02-25T09:55:19.250Z,98344.72
2023-02-25T09:57:57.221Z,98348.09
2023-02-25T10:00:27.469Z,98351.84
2023-02-25T10:03:06.987Z,98316.69
2023-02-25T10:05:44.368Z,98325.47
2023-02-25T10:08:20.986Z,98330.84
2023-02-25T10:11:01.833Z,98331.16
2023-02-25T10:13:42.087Z,98317.41
2023-02-25T10:16:30.289Z,98305.47
2023-02-25T10:19:17.136Z,98312.22
2023-02-25T10:22:01.950Z,98310.47
2023-02-25T10:24:35.914Z,98261.97
2023-02-25T10:27:14.867Z,98283.78
2023-02-25T10:29:49.494Z,98280.53
2023-02-25T10:32:22.163Z,98277.06
2023-02-25T10:34:55.236Z,98255.34
2023-02-25T10:37:29.786Z,98299.91
2023-02-25T10:40:04.329Z,98274.00
2023-02-25T10:42:35.524Z,98244.50
2023-02-25T10:45:12.334Z,98249.13
2023-02-25T10:47:48.918Z,98228.47
2023-02-25T10:50:29.807Z,98221.56
2023-02-25T10:53:13.288Z,98251.31
2023-02-25T10:56:14.541Z,98256.13
2023-02-25T10:58:47.243Z,98224.66
2023-02-25T11:01:19.142Z,98215.94
2023-02-25T11:03:55.593Z,98196.16
2023-02-25T11:06:29.223Z,98202.16
2023-02-25T11:08:59.171Z,98192.00
2023-02-25T11:11:32.170Z,98201.22
2023-02-25T11:14:05.330Z,98174.34
2023-02-25T11:16:37.133Z,98200.59
2023-02-25T11:19:15.683Z,98202.09
2023-02-25T11:21:46.945Z,98203.81
2023-02-25T11:24:18.945Z,98183.41
2023-02-25T11:26:51.062Z,98204.28
2023-02-25T11:29:25.181Z,98185.03
2023-02-25T11:32:00.075Z,98082.44
2023-02-25T11:34:32.856Z,98188.03
2023-02-25T11:37:28.483Z,98164.53
2023-02-25T11:39:59.278Z,98178.69
2023-02-25T11:42:30.319Z,98160.41
2023-02-25T11:45:01.864Z,98154.63
2023-02-25T11:47:34.981Z,98160.88
2023-02-25T11:50:21.004Z,98149.47
2023-02-25T11:53:02.056Z,98153.75
2023-02-25T12:00:11.574Z,98149.50
2023-02-25T12:02:49.270Z,98142.25
2023-02-25T12:06:04.040Z,98147.44
2023-02-25T12:08:50.448Z,98143.16
2023-02-25T12:11:52.115Z,98089.56
2023-02-25T12:14:55.533Z,98131.00
2023-02-25T12:17:44.478Z,98111.94
2023-02-25T12:20:43.196Z,98107.00
2023-02-25T12:24:04.307Z,98136.41
2023-02-25T12:26:53.479Z,98124.91
2023-02-25T12:29:44.780Z,98125.50
2023-02-25T12:32:35.658Z,98091.94
2023-02-25T12:35:35.994Z,98111.81
2023-02-25T12:38:57.343Z,98117.69
2023-02-25T12:41:39.833Z,98115.75
2023-02-25T12:44:38.724Z,98114.34
2023-02-25T12:47:23.964Z,98101.06
2023-02-25T12:50:33.090Z,98098.88
2023-02-25T12:53:21.097Z,98105.56
2023-02-25T12:56:18.723Z,98075.09
2023-02-25T12:59:11.455Z,98116.91
2023-02-25T13:01:58.323Z,98099.69
2023-02-25T13:05:06.443Z,98087.69
2023-02-25T13:07:58.473Z,98100.09
2023-02-25T13:10:42.374Z,98071.09
2023-02-25T13:13:31.830Z,98081.41
2023-02-25T13:16:14.530Z,98095.00
2023-02-25T13:18:53.426Z,98076.28
2023-02-25T13:21:37.009Z,98070.47
2023-02-25T13:24:16.620Z,98086.38
2023-02-25T13:27:28.917Z,98067.06
2023-02-25T13:30:31.083Z,98083.25
2023-02-25T13:33:29.234Z,98073.94
2023-02-25T13:36:09.350Z,98056.97
2023-02-25T13:38:51.571Z,98061.34
2023-02-25T13:41:36.031Z,98061.59
2023-02-25T13:44:23.648Z,97997.97
2023-02-25T13:47:14.642Z,98052.16
2023-02-25T13:50:17.015Z,98039.16
2023-02-25T13:53:01.126Z,98044.88
2023-02-25T13:55:56.556Z,98029.47
2023-02-25T13:58:37.468Z,98028.53
2023-02-25T14:01:31.950Z,98007.63
2023-02-25T14:04:33.474Z,98012.94
2023-02-25T14:07:39.741Z,98008.81
2023-02-25T14:10:37.638Z,97998.91
2023-02-25T14:13:39.587Z,97971.91
2023-02-25T14:16:20.717Z,97922.00
2023-02-25T14:19:06.754Z,97986.91
2023-02-25T14:21:50.527Z,97976.84
2023-02-25T14:24:29.754Z,97945.56
2023-02-25T14:27:10.368Z,97927.81
2023-02-25T14:29:50.582Z,97943.84
2023-02-25T14:32:36.638Z,97945.97
2023-02-25T14:35:21.346Z,97924.19
2023-02-25T14:38:03.028Z,97939.06
2023-02-25T14:40:42.745Z,97958.09
2023-02-25T14:43:30.708Z,97940.31
2023-02-25T14:46:16.529Z,97935.91
2023-02-25T14:48:52.405Z,97934.56
2023-02-25T14:51:41.164Z,97926.31
2023-02-25T14:54:39.955Z,97924.63
2023-02-25T14:57:28.029Z,97929.56
2023-02-25T15:00:26.441Z,97891.16
2023-02-25T15:03:15.122Z,97891.47
2023-02-25T15:06:13.526Z,97798.28
2023-02-25T15:09:17.739Z,97868.94
2023-02-25T15:12:10.873Z,97884.53
2023-02-25T15:15:20.758Z,97855.03
2023-02-25T15:18:33.064Z,97881.22
2023-02-25T15:21:31.005Z,97865.50
2023-02-25T15:24:01.141Z,97826.69
2023-02-25T15:26:43.275Z,97879.94
2023-02-25T15:29:37.860Z,97892.88
2023-02-25T15:32:23.081Z,97872.44
2023-02-25T15:34:58.184Z,97865.31
2023-02-25T15:37:36.064Z,97859.66
2023-02-25T15:40:49.066Z,97861.66
2023-02-25T15:43:43.734Z,97848.38
2023-02-25T15:46:42.665Z,97843.00
2023-02-25T15:49:28.691Z,97834.09
2023-02-25T15:52:03.228Z,97868.78
2023-02-25T15:54:53.265Z,97879.53
2023-02-25T15:57:38.429Z,97893.38
2023-02-25T16:00:54.736Z,97957.81
2023-02-25T16:03:29.408Z,98004.97
2023-02-25T16:06:04.161Z,98054.72
2023-02-25T16:08:44.540Z,98069.59
2023-02-25T16:11:24.423Z,98059.47
2023-02-25T16:13:55.688Z,98089.59
2023-02-25T16:16:26.633Z,98090.00
2023-02-25T16:19:00.915Z,98094.63
2023-02-25T16:21:39.828Z,98092.19
2023-02-25T16:24:11.294Z,98108.25
2023-02-25T16:26:48.865Z,98065.31
2023-02-25T16:29:37.303Z,98087.84
2023-02-25T16:32:14.962Z,98108.84
2023-02-25T16:34:51.827Z,98100.34
2023-02-25T16:37:32.448Z,98081.56
2023-02-25T16:40:02.944Z,98075.34
2023-02-25T16:42:36.474Z,98085.88
2023-02-25T16:45:08.601Z,98097.81
2023-02-25T16:47:40.418Z,98113.31
2023-02-25T16:50:15.943Z,98098.91
2023-02-25T16:52:50.617Z,98100.03
2023-02-25T16:55:23.862Z,98068.31
2023-02-25T16:58:03.409Z,98091.13
2023-02-25T17:00:33.259Z,98109.34
2023-02-25T17:03:06.872Z,98076.19
2023-02-25T17:05:39.079Z,98121.66
2023-02-25T17:08:18.429Z,98153.16
2023-02-25T17:10:50.747Z,98175.13
2023-02-25T17:13:26.115Z,98204.81
2023-02-25T17:15:56.133Z,98211.97
2023-02-25T17:18:31.304Z,98199.13
2023-02-25T17:21:07.784Z,98239.94
2023-02-25T17:23:42.365Z,98250.78
2023-02-25T17:26:14.191Z,98244.25
2023-02-25T17:28:47.261Z,98241.41
2023-02-25T17:31:19.359Z,98235.84
2023-02-25T17:33:50.522Z,98241.16
2023-02-25T17:36:23.817Z,98219.31
2023-02-25T17:38:57.991Z,98226.13
2023-02-25T17:41:28.143Z,98267.66
2023-02-25T17:43:58.263Z,98259.50
2023-02-25T17:46:36.297Z,98267.06
2023-02-25T17:49:19.022Z,98267.06
2023-02-25T17:51:54.151Z,98264.53
2023-02-25T17:54:27.072Z,98250.50
2023-02-25T17:56:58.772Z,98263.72
2023-02-25T17:59:38.346Z,98252.59
2023-02-25T18:02:29.296Z,98262.19
2023-02-25T18:05:31.138Z,98262.22
2023-02-25T18:08:04.767Z,98240.03
2023-02-25T18:10:56.628Z,98270.91
2023-02-25T18:13:31.616Z,98237.38
2023-02-25T18:16:33.485Z,98298.59
2023-02-25T18:19:04.045Z,98324.09
2023-02-25T18:21:43.075Z,98316.47
2023-02-25T18:24:25.148Z,98335.56
2023-02-25T18:27:20.878Z,98303.47
2023-02-25T18:29:50.475Z,98321.38
2023-02-25T18:32:19.922Z,98345.88
2023-02-25T18:34:49.620Z,98359.94
2023-02-25T18:37:20.509Z,98330.56
2023-02-25T18:39:51.627Z,98364.91
2023-02-25T18:42:23.124Z,98378.16
2023-02-25T18:44:52.972Z,98366.34
2023-02-25T18:47:22.626Z,98333.41
2023-02-25T18:49:53.263Z,98369.66
2023-02-25T18:52:27.781Z,98369.44
2023-02-25T18:54:56.915Z,98370.44
2023-02-25T18:57:29.099Z,98388.28
2023-02-25T18:59:59.279Z,98343.28
2023-02-25T19:02:31.339Z,98372.53
2023-02-25T19:05:01.935Z,98381.72
2023-02-25T19:07:34.892Z,98362.63
2023-02-25T19:10:08.858Z,98383.97
2023-02-25T19:12:39.702Z,98393.22
2023-02-25T19:15:14.684Z,98384.59
2023-02-25T19:17:44.763Z,98399.59
2023-02-25T19:20:16.885Z,98387.19
2023-02-25T19:22:48.782Z,98389.88
2023-02-25T19:25:21.737Z,98405.19
2023-02-25T19:27:54.685Z,98422.09
2023-02-25T19:30:27.204Z,98428.81
2023-02-25T19:33:03.525Z,98424.94
2023-02-25T19:35:36.639Z,98428.38
2023-02-25T19:38:07.331Z,98440.03
2023-02-25T19:40:37.765Z,98441.94
2023-02-25T19:43:08.799Z,98459.72
2023-02-25T19:45:38.470Z,98446.50
2023-02-25T19:48:08.385Z,98461.22
2023-02-25T19:50:42.185Z,98445.88
2023-02-25T19:53:12.350Z,98386.97
2023-02-25T19:55:44.160Z,98451.00
2023-02-25T19:58:15.808Z,98430.47
2023-02-25T20:00:46.985Z,98460.66
2023-02-25T20:03:17.213Z,98450.16
2023-02-25T20:05:52.253Z,98489.31
2023-02-25T20:08:25.510Z,98485.69
2023-02-25T20:10:55.061Z,98484.75
2023-02-25T20:13:28.450Z,98477.00
2023-02-25T20:16:02.420Z,98476.72
2023-02-25T20:18:32.418Z,98482.81
2023-02-25T20:21:01.793Z,98499.94
2023-02-25T20:23:31.663Z,98477.06
2023-02-25T20:26:05.801Z,98505.63
2023-02-25T20:28:37.321Z,98493.53
2023-02-25T20:31:08.016Z,98486.09
2023-02-25T20:33:38.444Z,98508.16
2023-02-25T20:36:20.581Z,98476.63
2023-02-25T20:39:12.652Z,98498.75
2023-02-25T20:41:43.377Z,98492.72
2023-02-25T20:44:16.677Z,98456.16
2023-02-25T20:46:46.484Z,98496.06
2023-02-25T20:49:18.243Z,98512.47
2023-02-25T20:51:49.191Z,98517.28
2023-02-25T20:54:21.186Z,98531.50
2023-02-25T20:56:51.717Z,98536.31
2023-02-25T20:59:22.823Z,98534.53
2023-02-25T21:01:52.955Z,98537.28
2023-02-25T21:04:22.492Z,98547.41
2023-02-25T21:06:53.095Z,98538.88
2023-02-25T21:09:23.030Z,98545.84
2023-02-25T21:11:52.601Z,98567.53
2023-02-25T21:14:23.440Z,98549.50
2023-02-25T21:16:54.424Z,98556.31
2023-02-25T21:19:25.976Z,98569.13
2023-02-25T21:21:55.793Z,98581.53
2023-02-25T21:24:27.486Z,98582.06
2023-02-25T21:26:57.327Z,98563.34
2023-02-25T21:29:29.037Z,98598.22
2023-02-25T21:31:59.173Z,98616.22
2023-02-25T21:34:29.095Z,98625.72
2023-02-25T21:36:59.546Z,98612.91
2023-02-25T21:39:29.531Z,98610.34
2023-02-25T21:42:01.954Z,98601.63
2023-02-25T21:44:32.892Z,98641.06
2023-02-25T21:47:02.588Z,98642.72
2023-02-25T21:49:32.801Z,98650.41
2023-02-25T21:52:01.934Z,98648.00
2023-02-25T21:54:32.264Z,98656.41
2023-02-25T21:57:03.652Z,98661.69
2023-02-25T21:59:34.493Z,98660.47
2023-02-25T22:02:03.941Z,98667.78
2023-02-25T22:04:33.376Z,98634.56
2023-02-25T22:07:04.934Z,98652.09
2023-02-25T22:09:34.479Z,98669.00
2023-02-25T22:12:03.906Z,98679.41
2023-02-25T22:14:34.887Z,98686.59
2023-02-25T22:17:08.600Z,98684.06
2023-02-25T22:19:38.018Z,98673.03
2023-02-25T22:22:07.438Z,98684.56
2023-02-25T22:24:55.378Z,98689.47
2023-02-25T22:27:37.335Z,98609.09
2023-02-25T22:30:19.802Z,98672.91
2023-02-25T22:32:52.727Z,98667.88
2023-02-25T22:35:22.225Z,98679.84
2023-02-25T22:37:51.596Z,98680.34
2023-02-25T22:40:37.701Z,98670.25
2023-02-25T22:43:18.833Z,98681.34
2023-02-25T22:45:53.361Z,98679.78
2023-02-25T22:48:22.605Z,98686.88
2023-02-25T22:50:59.022Z,98689.16
2023-02-25T22:53:33.869Z,98681.94
2023-02-25T22:56:04.180Z,98692.75
2023-02-25T22:58:34.093Z,98684.88
2023-02-25T23:01:04.923Z,98691.56
2023-02-25T23:03:34.572Z,98691.53
2023-02-25T23:06:04.035Z,98684.06
2023-02-25T23:08:33.957Z,98687.91
2023-02-25T23:11:15.137Z,98676.88
2023-02-25T23:13:47.612Z,98708.91
2023-02-25T23:16:20.106Z,98716.63
2023-02-25T23:18:51.214Z,98717.22
2023-02-25T23:21:21.799Z,98720.06
2023-02-25T23:23:53.938Z,98729.25
2023-02-25T23:26:25.751Z,98721.97
2023-02-25T23:28:56.555Z,98727.06
2023-02-25T23:31:30.087Z,98742.69
2023-02-25T23:34:01.170Z,98722.75
2023-02-25T23:36:30.765Z,98733.72
2023-02-25T23:39:02.370Z,98724.94
2023-02-25T23:41:31.974Z,98725.44
2023-02-25T23:44:01.886Z,98722.84
2023-02-25T23:46:33.015Z,98715.06
2023-02-25T23:49:04.267Z,98727.97
2023-02-25T23:51:33.830Z,98726.69
2023-02-25T23:54:05.230Z,98729.03
2023-02-25T23:56:35.650Z,98695.72
2023-02-25T23:59:05.450Z,98732.63
